Seaway II — ZMR3466 — position and weather

sailwx.info

Track history (hours):
 
Tides and Currents Weather Stations Pressure Air Temp Water Temp Dewpoint Dewpoint Depression Visibility Wind Speed Wind Dir Waves Ship Positions

Seaway II

Last reported at 2014-Oct-02 06:32 UTC. Time now 2014-Oct-02 06:38 UTC.
Position S 36°53' E 174°54'.

Length 37 m.

Type: Passenger vessel. MMSI: 512001026.

Date/timePositionNaut miles runAvg speedWind from/ knotsBaromVisibWave heightAir tempDewpointWater temp
2014-Oct-02 06:32S 36°53' E 174°54'1 1.5
2014-Oct-02 05:33S 36°51' E 174°54'4 3.7
2014-Oct-02 04:33S 36°50' E 174°58'4 4.1
2014-Oct-02 03:31S 36°53' E 174°54'0 0.0
2014-Oct-02 02:31S 36°53' E 174°54'0 0.0
2014-Oct-02 01:31S 36°53' E 174°54'0 0.0
2014-Oct-02 00:31S 36°53' E 174°54'0 0.0
2014-Oct-01 23:31S 36°53' E 174°54'0 0.0
2014-Oct-01 22:31S 36°53' E 174°54'0 0.0
2014-Oct-01 21:31S 36°53' E 174°54'0 0.0
2014-Oct-01 20:31S 36°53' E 174°54'3 2.9
2014-Oct-01 19:33S 36°50' E 174°55'1 0.6
2014-Oct-01 18:33S 36°50' E 174°55'1 0.6
2014-Oct-01 17:28S 36°50' E 174°55'2 2.3
2014-Oct-01 16:33S 36°50' E 174°58'4 4.1
2014-Oct-01 15:28S 36°53' E 174°54'0 0.0
2014-Oct-01 14:31S 36°53' E 174°54'0 0.0
2014-Oct-01 13:31S 36°53' E 174°54'0 0.0
2014-Oct-01 12:28S 36°53' E 174°54'0 0.0
2014-Oct-01 11:31S 36°53' E 174°54'0 0.0
2014-Oct-01 10:28S 36°53' E 174°54'0 0.0
2014-Oct-01 09:31S 36°53' E 174°54'0 0.0
2014-Oct-01 08:31S 36°53' E 174°54'0 0.0
2014-Oct-01 07:22S 36°53' E 174°54'0 0.0
2014-Oct-01 06:16S 36°53' E 174°54'3 3.8
2014-Oct-01 05:27S 36°50' E 174°55'2 2.2
2014-Oct-01 04:33S 36°50' E 174°58'4 4.2
2014-Oct-01 03:31S 36°53' E 174°54'4 3.7
2014-Oct-01 02:32S 36°50' E 174°56'1 1.1
2014-Oct-01 01:32S 36°50' E 174°58'4 4.0
2014-Oct-01 00:29S 36°53' E 174°54'0 0.0
2014-Sep-30 23:23S 36°53' E 174°54'6 6.6
2014-Sep-30 22:29S 36°49' E 174°60'4 3.7
2014-Sep-30 21:33S 36°50' E 174°56'3 2.2
2014-Sep-30 20:16S 36°53' E 174°54'6 6.8
2014-Sep-30 19:26S 36°49' E 174°59'4 4.6
2014-Sep-30 18:32S 36°50' E 174°55'1 0.5
2014-Sep-30 17:33S 36°51' E 174°54'3 3.1
2014-Sep-30 16:33S 36°50' E 174°58'4 4.1
2014-Sep-30 15:31S 36°53' E 174°54'0 0.0
2014-Sep-30 14:31S 36°53' E 174°54'0 0.0
2014-Sep-30 13:31S 36°53' E 174°54'0 0.0
2014-Sep-30 12:31S 36°53' E 174°54'0 0.0
2014-Sep-30 11:31S 36°53' E 174°54'0 0.0
2014-Sep-30 10:31S 36°53' E 174°54'0 0.0
2014-Sep-30 09:31S 36°53' E 174°54'0 0.0
2014-Sep-30 08:32S 36°53' E 174°54'0 0.0
2014-Sep-30 07:29S 36°53' E 174°54'0 0.0
2014-Sep-30 06:20S 36°53' E 174°54'2 2.8
2014-Sep-30 05:33S 36°51' E 174°54'2 2.5
2014-Sep-30 04:33S 36°50' E 174°57'4 2.9
2014-Sep-30 03:17S 36°53' E 174°54'0 0.0
2014-Sep-30 02:32S 36°53' E 174°54'0 0.0
2014-Sep-30 01:31S 36°53' E 174°54'4 2.0
2014-Sep-29 23:33S 36°50' E 174°57'4 3.9
2014-Sep-29 22:32S 36°53' E 174°54'2 1.2
2014-Sep-29 20:33S 36°50' E 174°54'0 0.3
2014-Sep-29 19:33S 36°50' E 174°55'0 0.4
2014-Sep-29 18:33S 36°50' E 174°55'1 0.5
2014-Sep-29 17:31S 36°50' E 174°55'1 1.6
2014-Sep-29 16:33S 36°50' E 174°57'4 3.9
2014-Sep-29 15:31S 36°53' E 174°54'0 0.0
2014-Sep-29 14:31S 36°53' E 174°54'0 0.0
2014-Sep-29 13:31S 36°53' E 174°54'0 0.0
2014-Sep-29 12:31S 36°53' E 174°54'0 0.0
2014-Sep-29 11:31S 36°53' E 174°54'0 0.0
2014-Sep-29 10:28S 36°53' E 174°54'0 0.0
2014-Sep-29 09:31S 36°53' E 174°54'0 0.0
2014-Sep-29 08:31S 36°53' E 174°54'0 0.0
2014-Sep-29 07:31S 36°53' E 174°54'0 0.0
2014-Sep-29 06:31S 36°53' E 174°54'1 1.3
2014-Sep-29 05:33S 36°52' E 174°54'3 3.4
2014-Sep-29 04:33S 36°50' E 174°57'3 3.3
2014-Sep-29 03:33S 36°51' E 174°54'3 3.4
2014-Sep-29 02:33S 36°50' E 174°58'4 4.2
2014-Sep-29 01:32S 36°53' E 174°54'0 0.0
2014-Sep-29 00:28S 36°53' E 174°54'0 0.5
2014-Sep-28 23:33S 36°52' E 174°54'5 4.8
2014-Sep-28 22:29S 36°47' E 174°54'0 0.0
2014-Sep-28 21:31S 36°47' E 174°54'1 1.2
2014-Sep-28 20:33S 36°48' E 174°54'2 2.2
2014-Sep-28 19:32S 36°51' E 174°54'0 0.5
2014-Sep-28 18:33S 36°50' E 174°54'4 4.2
2014-Sep-28 17:32S 36°49' E 174°60'5 4.9
2014-Sep-28 16:33S 36°49' E 174°54'4 3.7
2014-Sep-28 15:32S 36°53' E 174°54'0 0.0
2014-Sep-28 14:32S 36°53' E 174°54'0 0.0
2014-Sep-28 13:33S 36°53' E 174°54'0 0.0
2014-Sep-28 12:32S 36°53' E 174°54'0 0.0
2014-Sep-28 11:30S 36°53' E 174°54'0 0.0
2014-Sep-28 10:32S 36°53' E 174°54'0 0.0
2014-Sep-28 09:32S 36°53' E 174°54'0 0.0
2014-Sep-28 08:32S 36°53' E 174°54'0 0.0
2014-Sep-28 07:32S 36°53' E 174°54'0 0.0
2014-Sep-28 06:32S 36°53' E 174°54'0 0.0
2014-Sep-28 05:33S 36°53' E 174°54'0 0.0
2014-Sep-28 04:33S 36°53' E 174°54'5 2.3
2014-Sep-28 02:33S 36°50' E 174°58'5 4.4
2014-Sep-28 01:31S 36°53' E 174°54'4 2.0
2014-Sep-27 23:33S 36°50' E 174°57'4 3.9
2014-Sep-27 22:33S 36°53' E 174°54'4 2.2
2014-Sep-27 20:33S 36°50' E 174°58'4 4.3
2014-Sep-27 19:32S 36°53' E 174°54'4 1.9
2014-Sep-27 17:33S 36°50' E 174°57'4 3.6
2014-Sep-27 16:31S 36°53' E 174°54'0 0.0
2014-Sep-27 15:31S 36°53' E 174°54'0 0.0
2014-Sep-27 14:31S 36°53' E 174°54'0 0.0
2014-Sep-27 13:31S 36°53' E 174°54'0 0.0
2014-Sep-27 12:31S 36°53' E 174°54'0 0.0
2014-Sep-27 11:31S 36°53' E 174°54'0 0.0
2014-Sep-27 10:31S 36°53' E 174°54'0 0.0
2014-Sep-27 09:31S 36°53' E 174°54'0 0.0
2014-Sep-27 08:31S 36°53' E 174°54'0 0.0
2014-Sep-27 07:31S 36°53' E 174°54'0 0.0
2014-Sep-27 06:33S 36°53' E 174°54'0 0.0
2014-Sep-27 05:33S 36°53' E 174°54'4 1.8
2014-Sep-27 03:33S 36°50' E 174°57'4 3.7
2014-Sep-27 02:33S 36°53' E 174°54'7 3.7
2014-Sep-27 00:32S 36°49' E 175°02'7 7.5
2014-Sep-26 23:32S 36°53' E 174°54'4 2.0
2014-Sep-26 21:33S 36°50' E 174°57'4 3.8
2014-Sep-26 20:31S 36°53' E 174°54'4 1.9
2014-Sep-26 18:33S 36°50' E 174°57'4 3.6
2014-Sep-26 17:31S 36°53' E 174°54'0 0.0
2014-Sep-26 16:31S 36°53' E 174°54'0 0.0
2014-Sep-26 15:32S 36°53' E 174°54'0 0.0
2014-Sep-26 14:32S 36°53' E 174°54'0 0.0
2014-Sep-26 13:31S 36°53' E 174°54'0 0.0
2014-Sep-26 12:31S 36°53' E 174°54'0 0.0
2014-Sep-26 11:32S 36°53' E 174°54'0 0.0
2014-Sep-26 10:28S 36°53' E 174°54'0 0.0
2014-Sep-26 09:31S 36°53' E 174°54'8 7.6
2014-Sep-26 08:32S 36°49' E 175°02'1313.2
2014-Sep-26 07:32S 36°50' E 174°45'6 6.0
2014-Sep-26 06:33S 36°49' E 174°53'4 3.7
2014-Sep-26 05:33S 36°50' E 174°57'4 3.7
2014-Sep-26 04:33S 36°53' E 174°54'0 0.0
2014-Sep-26 03:33S 36°53' E 174°54'4 1.9
2014-Sep-26 01:33S 36°50' E 174°57'4 3.7
2014-Sep-26 00:32S 36°53' E 174°54'7 3.3
2014-Sep-25 22:20S 36°49' E 175°01'7 9.0
2014-Sep-25 21:33S 36°53' E 174°54'5 4.7
2014-Sep-25 20:29S 36°49' E 174°59'4 2.0
2014-Sep-25 18:23S 36°51' E 174°54'7 6.3
2014-Sep-25 17:20S 36°49' E 175°01'7 9.2
2014-Sep-25 16:33S 36°53' E 174°54'0 0.1
2014-Sep-25 15:31S 36°53' E 174°54'0 0.0
2014-Sep-25 14:31S 36°53' E 174°54'0 0.0
2014-Sep-25 13:31S 36°53' E 174°54'0 0.0
2014-Sep-25 12:31S 36°53' E 174°54'0 0.0
2014-Sep-25 11:31S 36°53' E 174°54'0 0.0
2014-Sep-25 10:31S 36°53' E 174°54'0 0.0
2014-Sep-25 09:31S 36°53' E 174°54'0 0.0
2014-Sep-25 08:31S 36°53' E 174°54'0 0.0
2014-Sep-25 07:31S 36°53' E 174°54'5 2.3
2014-Sep-25 05:33S 36°50' E 174°58'5 4.4
2014-Sep-25 04:31S 36°53' E 174°54'0 0.0
2014-Sep-25 03:33S 36°53' E 174°54'3 1.7
2014-Sep-25 01:33S 36°50' E 174°56'3 3.4
2014-Sep-25 00:31S 36°53' E 174°54'7 3.2
2014-Sep-24 22:19S 36°49' E 175°01'7 9.1
2014-Sep-24 21:32S 36°53' E 174°54'5 5.1
2014-Sep-24 20:29S 36°49' E 174°59'2 1.8
2014-Sep-24 19:33S 36°50' E 174°57'3 3.4
2014-Sep-24 18:32S 36°52' E 174°54'7 5.7
2014-Sep-24 17:20S 36°49' E 175°01'7 9.1
2014-Sep-24 16:32S 36°53' E 174°54'0 0.1
2014-Sep-24 15:31S 36°53' E 174°54'0 0.0
2014-Sep-24 14:25S 36°53' E 174°54'0 0.0
2014-Sep-24 13:31S 36°53' E 174°54'0 0.0
2014-Sep-24 12:31S 36°53' E 174°54'0 0.0
2014-Sep-24 11:31S 36°53' E 174°54'0 0.0
2014-Sep-24 10:31S 36°53' E 174°54'0 0.0
2014-Sep-24 09:32S 36°53' E 174°54'0 0.0
2014-Sep-24 08:32S 36°53' E 174°54'0 0.0
2014-Sep-24 07:32S 36°53' E 174°54'4 2.2
2014-Sep-24 05:33S 36°50' E 174°58'4 4.2
2014-Sep-24 04:32S 36°53' E 174°54'0 0.0
2014-Sep-24 03:32S 36°53' E 174°54'3 1.7
2014-Sep-24 01:33S 36°50' E 174°55'3 3.3
2014-Sep-24 00:32S 36°53' E 174°54'7 3.3
2014-Sep-23 22:20S 36°49' E 175°01'  
Track history (hours):
 
Tides and Currents Weather Stations Pressure Air Temp Water Temp Dewpoint Dewpoint Depression Visibility Wind Speed Wind Dir Waves Ship Positions

Seaway II

Last reported at 2014-Oct-02 06:32 UTC. Time now 2014-Oct-02 06:38 UTC.
Position S 36°53' E 174°54'.

Length 37 m.

Type: Passenger vessel. MMSI: 512001026.

Date/timePositionNaut miles runAvg speedWind from/ knotsBaromVisibWave heightAir tempDewpointWater temp
2014-Oct-02 06:32S 36°53' E 174°54'1 1.5
2014-Oct-02 05:33S 36°51' E 174°54'4 3.7
2014-Oct-02 04:33S 36°50' E 174°58'4 4.1
2014-Oct-02 03:31S 36°53' E 174°54'0 0.0
2014-Oct-02 02:31S 36°53' E 174°54'0 0.0
2014-Oct-02 01:31S 36°53' E 174°54'0 0.0
2014-Oct-02 00:31S 36°53' E 174°54'0 0.0
2014-Oct-01 23:31S 36°53' E 174°54'0 0.0
2014-Oct-01 22:31S 36°53' E 174°54'0 0.0
2014-Oct-01 21:31S 36°53' E 174°54'0 0.0
2014-Oct-01 20:31S 36°53' E 174°54'3 2.9
2014-Oct-01 19:33S 36°50' E 174°55'1 0.6
2014-Oct-01 18:33S 36°50' E 174°55'1 0.6
2014-Oct-01 17:28S 36°50' E 174°55'2 2.3
2014-Oct-01 16:33S 36°50' E 174°58'4 4.1
2014-Oct-01 15:28S 36°53' E 174°54'0 0.0
2014-Oct-01 14:31S 36°53' E 174°54'0 0.0
2014-Oct-01 13:31S 36°53' E 174°54'0 0.0
2014-Oct-01 12:28S 36°53' E 174°54'0 0.0
2014-Oct-01 11:31S 36°53' E 174°54'0 0.0
2014-Oct-01 10:28S 36°53' E 174°54'0 0.0
2014-Oct-01 09:31S 36°53' E 174°54'0 0.0
2014-Oct-01 08:31S 36°53' E 174°54'0 0.0
2014-Oct-01 07:22S 36°53' E 174°54'0 0.0
2014-Oct-01 06:16S 36°53' E 174°54'3 3.8
2014-Oct-01 05:27S 36°50' E 174°55'2 2.2
2014-Oct-01 04:33S 36°50' E 174°58'4 4.2
2014-Oct-01 03:31S 36°53' E 174°54'4 3.7
2014-Oct-01 02:32S 36°50' E 174°56'1 1.1
2014-Oct-01 01:32S 36°50' E 174°58'4 4.0
2014-Oct-01 00:29S 36°53' E 174°54'0 0.0
2014-Sep-30 23:23S 36°53' E 174°54'6 6.6
2014-Sep-30 22:29S 36°49' E 174°60'4 3.7
2014-Sep-30 21:33S 36°50' E 174°56'3 2.2
2014-Sep-30 20:16S 36°53' E 174°54'6 6.8
2014-Sep-30 19:26S 36°49' E 174°59'4 4.6
2014-Sep-30 18:32S 36°50' E 174°55'1 0.5
2014-Sep-30 17:33S 36°51' E 174°54'3 3.1
2014-Sep-30 16:33S 36°50' E 174°58'4 4.1
2014-Sep-30 15:31S 36°53' E 174°54'0 0.0
2014-Sep-30 14:31S 36°53' E 174°54'0 0.0
2014-Sep-30 13:31S 36°53' E 174°54'0 0.0
2014-Sep-30 12:31S 36°53' E 174°54'0 0.0
2014-Sep-30 11:31S 36°53' E 174°54'0 0.0
2014-Sep-30 10:31S 36°53' E 174°54'0 0.0
2014-Sep-30 09:31S 36°53' E 174°54'0 0.0
2014-Sep-30 08:32S 36°53' E 174°54'0 0.0
2014-Sep-30 07:29S 36°53' E 174°54'0 0.0
2014-Sep-30 06:20S 36°53' E 174°54'2 2.8
2014-Sep-30 05:33S 36°51' E 174°54'2 2.5
2014-Sep-30 04:33S 36°50' E 174°57'4 2.9
2014-Sep-30 03:17S 36°53' E 174°54'0 0.0
2014-Sep-30 02:32S 36°53' E 174°54'0 0.0
2014-Sep-30 01:31S 36°53' E 174°54'4 2.0
2014-Sep-29 23:33S 36°50' E 174°57'4 3.9
2014-Sep-29 22:32S 36°53' E 174°54'2 1.2
2014-Sep-29 20:33S 36°50' E 174°54'0 0.3
2014-Sep-29 19:33S 36°50' E 174°55'0 0.4
2014-Sep-29 18:33S 36°50' E 174°55'1 0.5
2014-Sep-29 17:31S 36°50' E 174°55'1 1.6
2014-Sep-29 16:33S 36°50' E 174°57'4 3.9
2014-Sep-29 15:31S 36°53' E 174°54'0 0.0
2014-Sep-29 14:31S 36°53' E 174°54'0 0.0
2014-Sep-29 13:31S 36°53' E 174°54'0 0.0
2014-Sep-29 12:31S 36°53' E 174°54'0 0.0
2014-Sep-29 11:31S 36°53' E 174°54'0 0.0
2014-Sep-29 10:28S 36°53' E 174°54'0 0.0
2014-Sep-29 09:31S 36°53' E 174°54'0 0.0
2014-Sep-29 08:31S 36°53' E 174°54'0 0.0
2014-Sep-29 07:31S 36°53' E 174°54'0 0.0
2014-Sep-29 06:31S 36°53' E 174°54'1 1.3
2014-Sep-29 05:33S 36°52' E 174°54'3 3.4
2014-Sep-29 04:33S 36°50' E 174°57'3 3.3
2014-Sep-29 03:33S 36°51' E 174°54'3 3.4
2014-Sep-29 02:33S 36°50' E 174°58'4 4.2
2014-Sep-29 01:32S 36°53' E 174°54'0 0.0
2014-Sep-29 00:28S 36°53' E 174°54'0 0.5
2014-Sep-28 23:33S 36°52' E 174°54'5 4.8
2014-Sep-28 22:29S 36°47' E 174°54'0 0.0
2014-Sep-28 21:31S 36°47' E 174°54'1 1.2
2014-Sep-28 20:33S 36°48' E 174°54'2 2.2
2014-Sep-28 19:32S 36°51' E 174°54'0 0.5
2014-Sep-28 18:33S 36°50' E 174°54'4 4.2
2014-Sep-28 17:32S 36°49' E 174°60'5 4.9
2014-Sep-28 16:33S 36°49' E 174°54'4 3.7
2014-Sep-28 15:32S 36°53' E 174°54'0 0.0
2014-Sep-28 14:32S 36°53' E 174°54'0 0.0
2014-Sep-28 13:33S 36°53' E 174°54'0 0.0
2014-Sep-28 12:32S 36°53' E 174°54'0 0.0
2014-Sep-28 11:30S 36°53' E 174°54'0 0.0
2014-Sep-28 10:32S 36°53' E 174°54'0 0.0
2014-Sep-28 09:32S 36°53' E 174°54'0 0.0
2014-Sep-28 08:32S 36°53' E 174°54'0 0.0
2014-Sep-28 07:32S 36°53' E 174°54'0 0.0
2014-Sep-28 06:32S 36°53' E 174°54'0 0.0
2014-Sep-28 05:33S 36°53' E 174°54'0 0.0
2014-Sep-28 04:33S 36°53' E 174°54'5 2.3
2014-Sep-28 02:33S 36°50' E 174°58'5 4.4
2014-Sep-28 01:31S 36°53' E 174°54'4 2.0
2014-Sep-27 23:33S 36°50' E 174°57'4 3.9
2014-Sep-27 22:33S 36°53' E 174°54'4 2.2
2014-Sep-27 20:33S 36°50' E 174°58'4 4.3
2014-Sep-27 19:32S 36°53' E 174°54'4 1.9
2014-Sep-27 17:33S 36°50' E 174°57'4 3.6
2014-Sep-27 16:31S 36°53' E 174°54'0 0.0
2014-Sep-27 15:31S 36°53' E 174°54'0 0.0
2014-Sep-27 14:31S 36°53' E 174°54'0 0.0
2014-Sep-27 13:31S 36°53' E 174°54'0 0.0
2014-Sep-27 12:31S 36°53' E 174°54'0 0.0
2014-Sep-27 11:31S 36°53' E 174°54'0 0.0
2014-Sep-27 10:31S 36°53' E 174°54'0 0.0
2014-Sep-27 09:31S 36°53' E 174°54'0 0.0
2014-Sep-27 08:31S 36°53' E 174°54'0 0.0
2014-Sep-27 07:31S 36°53' E 174°54'0 0.0
2014-Sep-27 06:33S 36°53' E 174°54'0 0.0
2014-Sep-27 05:33S 36°53' E 174°54'4 1.8
2014-Sep-27 03:33S 36°50' E 174°57'4 3.7
2014-Sep-27 02:33S 36°53' E 174°54'7 3.7
2014-Sep-27 00:32S 36°49' E 175°02'7 7.5
2014-Sep-26 23:32S 36°53' E 174°54'4 2.0
2014-Sep-26 21:33S 36°50' E 174°57'4 3.8
2014-Sep-26 20:31S 36°53' E 174°54'4 1.9
2014-Sep-26 18:33S 36°50' E 174°57'4 3.6
2014-Sep-26 17:31S 36°53' E 174°54'0 0.0
2014-Sep-26 16:31S 36°53' E 174°54'0 0.0
2014-Sep-26 15:32S 36°53' E 174°54'0 0.0
2014-Sep-26 14:32S 36°53' E 174°54'0 0.0
2014-Sep-26 13:31S 36°53' E 174°54'0 0.0
2014-Sep-26 12:31S 36°53' E 174°54'0 0.0
2014-Sep-26 11:32S 36°53' E 174°54'0 0.0
2014-Sep-26 10:28S 36°53' E 174°54'0 0.0
2014-Sep-26 09:31S 36°53' E 174°54'8 7.6
2014-Sep-26 08:32S 36°49' E 175°02'1313.2
2014-Sep-26 07:32S 36°50' E 174°45'6 6.0
2014-Sep-26 06:33S 36°49' E 174°53'4 3.7
2014-Sep-26 05:33S 36°50' E 174°57'4 3.7
2014-Sep-26 04:33S 36°53' E 174°54'0 0.0
2014-Sep-26 03:33S 36°53' E 174°54'4 1.9
2014-Sep-26 01:33S 36°50' E 174°57'4 3.7
2014-Sep-26 00:32S 36°53' E 174°54'7 3.3
2014-Sep-25 22:20S 36°49' E 175°01'7 9.0
2014-Sep-25 21:33S 36°53' E 174°54'5 4.7
2014-Sep-25 20:29S 36°49' E 174°59'4 2.0
2014-Sep-25 18:23S 36°51' E 174°54'7 6.3
2014-Sep-25 17:20S 36°49' E 175°01'7 9.2
2014-Sep-25 16:33S 36°53' E 174°54'0 0.1
2014-Sep-25 15:31S 36°53' E 174°54'0 0.0
2014-Sep-25 14:31S 36°53' E 174°54'0 0.0
2014-Sep-25 13:31S 36°53' E 174°54'0 0.0
2014-Sep-25 12:31S 36°53' E 174°54'0 0.0
2014-Sep-25 11:31S 36°53' E 174°54'0 0.0
2014-Sep-25 10:31S 36°53' E 174°54'0 0.0
2014-Sep-25 09:31S 36°53' E 174°54'0 0.0
2014-Sep-25 08:31S 36°53' E 174°54'0 0.0
2014-Sep-25 07:31S 36°53' E 174°54'5 2.3
2014-Sep-25 05:33S 36°50' E 174°58'5 4.4
2014-Sep-25 04:31S 36°53' E 174°54'0 0.0
2014-Sep-25 03:33S 36°53' E 174°54'3 1.7
2014-Sep-25 01:33S 36°50' E 174°56'3 3.4
2014-Sep-25 00:31S 36°53' E 174°54'7 3.2
2014-Sep-24 22:19S 36°49' E 175°01'7 9.1
2014-Sep-24 21:32S 36°53' E 174°54'5 5.1
2014-Sep-24 20:29S 36°49' E 174°59'2 1.8
2014-Sep-24 19:33S 36°50' E 174°57'3 3.4
2014-Sep-24 18:32S 36°52' E 174°54'7 5.7
2014-Sep-24 17:20S 36°49' E 175°01'7 9.1
2014-Sep-24 16:32S 36°53' E 174°54'0 0.1
2014-Sep-24 15:31S 36°53' E 174°54'0 0.0
2014-Sep-24 14:25S 36°53' E 174°54'0 0.0
2014-Sep-24 13:31S 36°53' E 174°54'0 0.0
2014-Sep-24 12:31S 36°53' E 174°54'0 0.0
2014-Sep-24 11:31S 36°53' E 174°54'0 0.0
2014-Sep-24 10:31S 36°53' E 174°54'0 0.0
2014-Sep-24 09:32S 36°53' E 174°54'0 0.0
2014-Sep-24 08:32S 36°53' E 174°54'0 0.0
2014-Sep-24 07:32S 36°53' E 174°54'4 2.2
2014-Sep-24 05:33S 36°50' E 174°58'4 4.2
2014-Sep-24 04:32S 36°53' E 174°54'0 0.0
2014-Sep-24 03:32S 36°53' E 174°54'3 1.7
2014-Sep-24 01:33S 36°50' E 174°55'3 3.3
2014-Sep-24 00:32S 36°53' E 174°54'7 3.3
2014-Sep-23 22:20S 36°49' E 175°01'  

Dump ship's entire track history